sensor_id;sensor_type;location;lat;lon;timestamp;P1;durP1;ratioP1;P2;durP2;ratioP2
8139;SDS011;4111;50.972;7.072;2023-11-22T00:01:51;7.87;;;7.17;;
8139;SDS011;4111;50.972;7.072;2023-11-22T00:04:18;8.20;;;7.40;;
8139;SDS011;4111;50.972;7.072;2023-11-22T00:06:44;8.87;;;7.97;;
8139;SDS011;4111;50.972;7.072;2023-11-22T00:09:10;8.00;;;7.20;;
8139;SDS011;4111;50.972;7.072;2023-11-22T00:11:37;8.47;;;7.50;;
8139;SDS011;4111;50.972;7.072;2023-11-22T00:14:03;11.90;;;7.13;;
8139;SDS011;4111;50.972;7.072;2023-11-22T00:16:30;7.83;;;7.07;;
8139;SDS011;4111;50.972;7.072;2023-11-22T00:18:56;8.33;;;7.53;;
8139;SDS011;4111;50.972;7.072;2023-11-22T00:21:23;8.53;;;7.70;;
8139;SDS011;4111;50.972;7.072;2023-11-22T00:23:51;9.93;;;7.37;;
8139;SDS011;4111;50.972;7.072;2023-11-22T00:26:17;7.73;;;7.03;;
8139;SDS011;4111;50.972;7.072;2023-11-22T00:28:44;10.57;;;7.47;;
8139;SDS011;4111;50.972;7.072;2023-11-22T00:31:10;7.87;;;7.17;;
8139;SDS011;4111;50.972;7.072;2023-11-22T00:33:37;9.67;;;7.70;;
8139;SDS011;4111;50.972;7.072;2023-11-22T00:36:03;8.83;;;8.03;;
8139;SDS011;4111;50.972;7.072;2023-11-22T00:38:30;7.97;;;7.10;;
8139;SDS011;4111;50.972;7.072;2023-11-22T00:40:57;8.37;;;7.50;;
8139;SDS011;4111;50.972;7.072;2023-11-22T00:43:26;9.00;;;7.97;;
8139;SDS011;4111;50.972;7.072;2023-11-22T00:45:52;7.67;;;7.00;;
8139;SDS011;4111;50.972;7.072;2023-11-22T00:48:19;10.13;;;7.47;;
8139;SDS011;4111;50.972;7.072;2023-11-22T00:50:46;10.70;;;7.67;;
8139;SDS011;4111;50.972;7.072;2023-11-22T00:53:12;8.00;;;7.20;;
8139;SDS011;4111;50.972;7.072;2023-11-22T00:55:40;9.23;;;8.30;;
8139;SDS011;4111;50.972;7.072;2023-11-22T00:58:08;10.03;;;7.53;;
8139;SDS011;4111;50.972;7.072;2023-11-22T01:00:34;11.47;;;8.47;;
8139;SDS011;4111;50.972;7.072;2023-11-22T01:03:01;13.13;;;7.90;;
8139;SDS011;4111;50.972;7.072;2023-11-22T01:05:27;8.73;;;7.63;;
8139;SDS011;4111;50.972;7.072;2023-11-22T01:07:55;8.57;;;7.77;;
8139;SDS011;4111;50.972;7.072;2023-11-22T01:10:22;10.20;;;7.43;;
8139;SDS011;4111;50.972;7.072;2023-11-22T01:12:48;8.97;;;7.73;;
8139;SDS011;4111;50.972;7.072;2023-11-22T01:15:15;10.73;;;8.00;;
8139;SDS011;4111;50.972;7.072;2023-11-22T01:17:42;8.57;;;7.47;;
8139;SDS011;4111;50.972;7.072;2023-11-22T01:20:09;10.73;;;8.37;;
8139;SDS011;4111;50.972;7.072;2023-11-22T01:22:40;8.50;;;7.70;;
8139;SDS011;4111;50.972;7.072;2023-11-22T01:25:06;8.53;;;7.67;;
8139;SDS011;4111;50.972;7.072;2023-11-22T01:27:33;12.80;;;8.10;;
8139;SDS011;4111;50.972;7.072;2023-11-22T01:29:59;12.27;;;8.37;;
8139;SDS011;4111;50.972;7.072;2023-11-22T01:32:26;11.20;;;7.47;;
8139;SDS011;4111;50.972;7.072;2023-11-22T01:34:52;8.33;;;7.53;;
8139;SDS011;4111;50.972;7.072;2023-11-22T01:37:18;9.63;;;8.53;;
8139;SDS011;4111;50.972;7.072;2023-11-22T01:39:45;8.97;;;8.07;;
8139;SDS011;4111;50.972;7.072;2023-11-22T01:42:12;9.50;;;8.07;;
8139;SDS011;4111;50.972;7.072;2023-11-22T01:44:38;8.67;;;7.83;;
8139;SDS011;4111;50.972;7.072;2023-11-22T01:47:05;9.53;;;8.03;;
8139;SDS011;4111;50.972;7.072;2023-11-22T01:49:32;10.53;;;8.23;;
8139;SDS011;4111;50.972;7.072;2023-11-22T01:51:59;8.67;;;7.53;;
8139;SDS011;4111;50.972;7.072;2023-11-22T01:54:26;8.73;;;7.40;;
8139;SDS011;4111;50.972;7.072;2023-11-22T01:56:54;8.50;;;7.57;;
8139;SDS011;4111;50.972;7.072;2023-11-22T01:59:21;8.60;;;7.70;;
8139;SDS011;4111;50.972;7.072;2023-11-22T02:01:48;11.03;;;8.30;;
8139;SDS011;4111;50.972;7.072;2023-11-22T02:04:15;10.07;;;7.80;;
8139;SDS011;4111;50.972;7.072;2023-11-22T02:06:42;8.77;;;7.87;;
8139;SDS011;4111;50.972;7.072;2023-11-22T02:09:08;9.83;;;8.87;;
8139;SDS011;4111;50.972;7.072;2023-11-22T02:11:40;10.13;;;8.90;;
8139;SDS011;4111;50.972;7.072;2023-11-22T02:14:07;10.07;;;8.60;;
8139;SDS011;4111;50.972;7.072;2023-11-22T02:16:35;9.03;;;8.13;;
8139;SDS011;4111;50.972;7.072;2023-11-22T02:19:04;9.60;;;8.50;;
8139;SDS011;4111;50.972;7.072;2023-11-22T02:21:33;10.30;;;8.57;;
8139;SDS011;4111;50.972;7.072;2023-11-22T02:23:59;10.97;;;8.43;;
8139;SDS011;4111;50.972;7.072;2023-11-22T02:26:26;10.70;;;8.23;;
8139;SDS011;4111;50.972;7.072;2023-11-22T02:28:52;9.30;;;8.37;;
8139;SDS011;4111;50.972;7.072;2023-11-22T02:31:19;9.33;;;8.43;;
8139;SDS011;4111;50.972;7.072;2023-11-22T02:33:45;11.23;;;8.03;;
8139;SDS011;4111;50.972;7.072;2023-11-22T02:36:12;9.40;;;8.50;;
8139;SDS011;4111;50.972;7.072;2023-11-22T02:38:39;8.27;;;7.47;;
8139;SDS011;4111;50.972;7.072;2023-11-22T02:41:06;9.40;;;8.50;;
8139;SDS011;4111;50.972;7.072;2023-11-22T02:43:33;8.07;;;7.37;;
8139;SDS011;4111;50.972;7.072;2023-11-22T02:45:59;8.37;;;7.57;;
8139;SDS011;4111;50.972;7.072;2023-11-22T02:48:26;8.30;;;7.50;;
8139;SDS011;4111;50.972;7.072;2023-11-22T02:50:52;11.17;;;7.57;;
8139;SDS011;4111;50.972;7.072;2023-11-22T02:53:20;7.53;;;6.93;;
8139;SDS011;4111;50.972;7.072;2023-11-22T02:55:47;9.70;;;8.70;;
8139;SDS011;4111;50.972;7.072;2023-11-22T02:58:14;7.87;;;7.27;;
8139;SDS011;4111;50.972;7.072;2023-11-22T03:00:42;8.23;;;7.03;;
8139;SDS011;4111;50.972;7.072;2023-11-22T03:03:09;10.67;;;7.47;;
8139;SDS011;4111;50.972;7.072;2023-11-22T03:05:37;9.27;;;7.80;;
8139;SDS011;4111;50.972;7.072;2023-11-22T03:08:04;8.97;;;7.57;;
8139;SDS011;4111;50.972;7.072;2023-11-22T03:10:33;8.17;;;7.47;;
8139;SDS011;4111;50.972;7.072;2023-11-22T03:13:01;7.77;;;7.07;;
8139;SDS011;4111;50.972;7.072;2023-11-22T03:15:28;7.20;;;6.40;;
8139;SDS011;4111;50.972;7.072;2023-11-22T03:17:54;8.27;;;7.40;;
8139;SDS011;4111;50.972;7.072;2023-11-22T03:20:21;9.57;;;7.40;;
8139;SDS011;4111;50.972;7.072;2023-11-22T03:22:47;9.93;;;7.10;;
8139;SDS011;4111;50.972;7.072;2023-11-22T03:25:17;8.27;;;7.10;;
8139;SDS011;4111;50.972;7.072;2023-11-22T03:27:44;7.30;;;6.60;;
8139;SDS011;4111;50.972;7.072;2023-11-22T03:30:10;7.03;;;6.33;;
8139;SDS011;4111;50.972;7.072;2023-11-22T03:32:38;7.30;;;6.60;;
8139;SDS011;4111;50.972;7.072;2023-11-22T03:35:06;8.80;;;7.00;;
8139;SDS011;4111;50.972;7.072;2023-11-22T03:37:34;6.90;;;6.20;;
8139;SDS011;4111;50.972;7.072;2023-11-22T03:40:00;7.27;;;6.57;;
8139;SDS011;4111;50.972;7.072;2023-11-22T03:42:27;8.47;;;7.10;;
8139;SDS011;4111;50.972;7.072;2023-11-22T03:44:54;7.07;;;6.37;;
8139;SDS011;4111;50.972;7.072;2023-11-22T03:47:20;6.97;;;6.27;;
8139;SDS011;4111;50.972;7.072;2023-11-22T03:49:47;7.90;;;7.10;;
8139;SDS011;4111;50.972;7.072;2023-11-22T03:52:14;7.20;;;6.60;;
8139;SDS011;4111;50.972;7.072;2023-11-22T03:54:41;8.37;;;6.73;;
8139;SDS011;4111;50.972;7.072;2023-11-22T03:57:08;8.37;;;6.40;;
8139;SDS011;4111;50.972;7.072;2023-11-22T03:59:34;7.80;;;5.90;;
8139;SDS011;4111;50.972;7.072;2023-11-22T04:02:01;7.13;;;6.43;;
8139;SDS011;4111;50.972;7.072;2023-11-22T04:04:27;8.87;;;6.60;;
8139;SDS011;4111;50.972;7.072;2023-11-22T04:06:54;7.57;;;6.43;;
8139;SDS011;4111;50.972;7.072;2023-11-22T04:09:20;7.30;;;6.60;;
8139;SDS011;4111;50.972;7.072;2023-11-22T04:11:47;10.17;;;7.07;;
8139;SDS011;4111;50.972;7.072;2023-11-22T04:14:13;7.57;;;6.87;;
8139;SDS011;4111;50.972;7.072;2023-11-22T04:16:40;7.67;;;6.97;;
8139;SDS011;4111;50.972;7.072;2023-11-22T04:19:07;8.40;;;7.30;;
8139;SDS011;4111;50.972;7.072;2023-11-22T04:21:34;8.17;;;7.37;;
8139;SDS011;4111;50.972;7.072;2023-11-22T04:24:00;7.63;;;6.83;;
8139;SDS011;4111;50.972;7.072;2023-11-22T04:26:27;7.83;;;6.93;;
8139;SDS011;4111;50.972;7.072;2023-11-22T04:28:53;7.83;;;7.13;;
8139;SDS011;4111;50.972;7.072;2023-11-22T04:31:20;6.83;;;6.27;;
8139;SDS011;4111;50.972;7.072;2023-11-22T04:33:46;7.13;;;6.43;;
8139;SDS011;4111;50.972;7.072;2023-11-22T04:36:13;7.37;;;6.67;;
8139;SDS011;4111;50.972;7.072;2023-11-22T04:38:39;7.83;;;6.70;;
8139;SDS011;4111;50.972;7.072;2023-11-22T04:41:06;8.13;;;7.10;;
8139;SDS011;4111;50.972;7.072;2023-11-22T04:43:32;7.53;;;6.83;;
8139;SDS011;4111;50.972;7.072;2023-11-22T04:45:59;7.53;;;6.77;;
8139;SDS011;4111;50.972;7.072;2023-11-22T04:48:25;8.00;;;7.30;;
8139;SDS011;4111;50.972;7.072;2023-11-22T04:50:52;7.63;;;6.93;;
8139;SDS011;4111;50.972;7.072;2023-11-22T04:53:18;7.50;;;6.80;;
8139;SDS011;4111;50.972;7.072;2023-11-22T04:55:45;7.77;;;7.07;;
8139;SDS011;4111;50.972;7.072;2023-11-22T04:58:11;7.77;;;6.90;;
8139;SDS011;4111;50.972;7.072;2023-11-22T05:00:38;8.53;;;7.73;;
8139;SDS011;4111;50.972;7.072;2023-11-22T05:03:04;7.90;;;7.20;;
8139;SDS011;4111;50.972;7.072;2023-11-22T05:05:31;9.73;;;7.37;;
8139;SDS011;4111;50.972;7.072;2023-11-22T05:07:57;9.53;;;7.80;;
8139;SDS011;4111;50.972;7.072;2023-11-22T05:10:24;8.20;;;7.43;;
8139;SDS011;4111;50.972;7.072;2023-11-22T05:12:50;8.40;;;7.60;;
8139;SDS011;4111;50.972;7.072;2023-11-22T05:15:17;9.43;;;7.90;;
8139;SDS011;4111;50.972;7.072;2023-11-22T05:17:43;8.63;;;7.77;;
8139;SDS011;4111;50.972;7.072;2023-11-22T05:20:10;11.83;;;7.80;;
8139;SDS011;4111;50.972;7.072;2023-11-22T05:22:36;8.00;;;7.30;;
8139;SDS011;4111;50.972;7.072;2023-11-22T05:25:03;8.77;;;7.90;;
8139;SDS011;4111;50.972;7.072;2023-11-22T05:27:31;11.50;;;7.87;;
8139;SDS011;4111;50.972;7.072;2023-11-22T05:29:58;8.27;;;7.47;;
8139;SDS011;4111;50.972;7.072;2023-11-22T05:32:27;7.93;;;7.23;;
8139;SDS011;4111;50.972;7.072;2023-11-22T05:34:55;7.77;;;7.07;;
8139;SDS011;4111;50.972;7.072;2023-11-22T05:37:22;8.07;;;7.37;;
8139;SDS011;4111;50.972;7.072;2023-11-22T05:39:50;7.67;;;6.97;;
8139;SDS011;4111;50.972;7.072;2023-11-22T05:42:17;7.37;;;6.30;;
8139;SDS011;4111;50.972;7.072;2023-11-22T05:44:44;10.33;;;7.00;;
8139;SDS011;4111;50.972;7.072;2023-11-22T05:47:10;13.10;;;6.63;;
8139;SDS011;4111;50.972;7.072;2023-11-22T05:49:39;7.53;;;6.67;;
8139;SDS011;4111;50.972;7.072;2023-11-22T05:52:05;7.27;;;6.43;;
8139;SDS011;4111;50.972;7.072;2023-11-22T05:54:32;9.60;;;6.57;;
8139;SDS011;4111;50.972;7.072;2023-11-22T05:56:58;7.37;;;6.20;;
8139;SDS011;4111;50.972;7.072;2023-11-22T05:59:25;5.93;;;5.43;;
8139;SDS011;4111;50.972;7.072;2023-11-22T06:01:51;6.77;;;6.10;;
8139;SDS011;4111;50.972;7.072;2023-11-22T06:04:18;6.63;;;5.60;;
8139;SDS011;4111;50.972;7.072;2023-11-22T06:06:44;6.87;;;5.53;;
8139;SDS011;4111;50.972;7.072;2023-11-22T06:09:11;6.20;;;5.67;;
8139;SDS011;4111;50.972;7.072;2023-11-22T06:11:40;6.10;;;5.50;;
8139;SDS011;4111;50.972;7.072;2023-11-22T06:14:07;6.17;;;5.67;;
8139;SDS011;4111;50.972;7.072;2023-11-22T06:16:33;5.97;;;5.37;;
8139;SDS011;4111;50.972;7.072;2023-11-22T06:19:00;7.27;;;5.53;;
8139;SDS011;4111;50.972;7.072;2023-11-22T06:21:26;6.20;;;5.70;;
8139;SDS011;4111;50.972;7.072;2023-11-22T06:23:53;6.13;;;5.53;;
8139;SDS011;4111;50.972;7.072;2023-11-22T06:26:24;5.77;;;5.27;;
8139;SDS011;4111;50.972;7.072;2023-11-22T06:28:51;6.53;;;4.90;;
8139;SDS011;4111;50.972;7.072;2023-11-22T06:31:17;6.27;;;5.30;;
8139;SDS011;4111;50.972;7.072;2023-11-22T06:33:43;5.70;;;5.20;;
8139;SDS011;4111;50.972;7.072;2023-11-22T06:36:10;6.23;;;5.63;;
8139;SDS011;4111;50.972;7.072;2023-11-22T06:38:37;6.13;;;5.50;;
8139;SDS011;4111;50.972;7.072;2023-11-22T06:41:04;6.07;;;5.33;;
8139;SDS011;4111;50.972;7.072;2023-11-22T06:43:31;5.87;;;5.27;;
8139;SDS011;4111;50.972;7.072;2023-11-22T06:45:57;5.83;;;5.20;;
8139;SDS011;4111;50.972;7.072;2023-11-22T06:48:24;8.40;;;5.90;;
8139;SDS011;4111;50.972;7.072;2023-11-22T06:50:50;5.87;;;5.37;;
8139;SDS011;4111;50.972;7.072;2023-11-22T06:53:17;5.57;;;5.07;;
8139;SDS011;4111;50.972;7.072;2023-11-22T06:55:45;6.60;;;5.77;;
8139;SDS011;4111;50.972;7.072;2023-11-22T06:58:12;9.03;;;5.77;;
8139;SDS011;4111;50.972;7.072;2023-11-22T07:00:39;6.00;;;5.33;;
8139;SDS011;4111;50.972;7.072;2023-11-22T07:03:06;6.10;;;5.20;;
8139;SDS011;4111;50.972;7.072;2023-11-22T07:05:33;6.10;;;5.60;;
8139;SDS011;4111;50.972;7.072;2023-11-22T07:08:00;9.33;;;6.03;;
8139;SDS011;4111;50.972;7.072;2023-11-22T07:10:28;6.57;;;5.90;;
8139;SDS011;4111;50.972;7.072;2023-11-22T07:12:54;7.57;;;6.43;;
8139;SDS011;4111;50.972;7.072;2023-11-22T07:15:22;6.53;;;5.93;;
8139;SDS011;4111;50.972;7.072;2023-11-22T07:17:48;9.60;;;6.80;;
8139;SDS011;4111;50.972;7.072;2023-11-22T07:20:15;11.13;;;6.90;;
8139;SDS011;4111;50.972;7.072;2023-11-22T07:22:43;7.13;;;6.30;;
8139;SDS011;4111;50.972;7.072;2023-11-22T07:25:10;9.27;;;6.40;;
8139;SDS011;4111;50.972;7.072;2023-11-22T07:27:45;8.67;;;6.27;;
8139;SDS011;4111;50.972;7.072;2023-11-22T07:30:12;8.67;;;6.70;;
8139;SDS011;4111;50.972;7.072;2023-11-22T07:32:40;5.90;;;5.40;;
8139;SDS011;4111;50.972;7.072;2023-11-22T07:35:07;6.83;;;6.23;;
8139;SDS011;4111;50.972;7.072;2023-11-22T07:37:38;6.97;;;6.37;;
8139;SDS011;4111;50.972;7.072;2023-11-22T07:40:10;11.63;;;6.10;;
8139;SDS011;4111;50.972;7.072;2023-11-22T07:42:40;8.70;;;6.67;;
8139;SDS011;4111;50.972;7.072;2023-11-22T07:45:07;7.83;;;7.03;;
8139;SDS011;4111;50.972;7.072;2023-11-22T07:47:36;8.57;;;6.50;;
8139;SDS011;4111;50.972;7.072;2023-11-22T07:50:07;6.60;;;6.00;;
8139;SDS011;4111;50.972;7.072;2023-11-22T07:52:34;6.50;;;5.90;;
8139;SDS011;4111;50.972;7.072;2023-11-22T07:55:01;7.43;;;6.00;;
8139;SDS011;4111;50.972;7.072;2023-11-22T07:57:27;6.53;;;5.90;;
8139;SDS011;4111;50.972;7.072;2023-11-22T07:59:54;9.33;;;6.27;;
8139;SDS011;4111;50.972;7.072;2023-11-22T08:02:22;8.70;;;5.67;;
8139;SDS011;4111;50.972;7.072;2023-11-22T08:04:48;6.37;;;5.73;;
8139;SDS011;4111;50.972;7.072;2023-11-22T08:07:16;8.47;;;6.00;;
8139;SDS011;4111;50.972;7.072;2023-11-22T08:09:43;6.63;;;6.03;;
8139;SDS011;4111;50.972;7.072;2023-11-22T08:12:09;9.70;;;6.37;;
8139;SDS011;4111;50.972;7.072;2023-11-22T08:14:37;8.27;;;5.73;;
8139;SDS011;4111;50.972;7.072;2023-11-22T08:17:04;8.33;;;6.30;;
8139;SDS011;4111;50.972;7.072;2023-11-22T08:19:32;7.20;;;6.50;;
8139;SDS011;4111;50.972;7.072;2023-11-22T08:21:58;8.07;;;5.90;;
8139;SDS011;4111;50.972;7.072;2023-11-22T08:24:25;7.47;;;6.57;;
8139;SDS011;4111;50.972;7.072;2023-11-22T08:26:51;7.40;;;6.57;;
8139;SDS011;4111;50.972;7.072;2023-11-22T08:29:18;7.80;;;6.17;;
8139;SDS011;4111;50.972;7.072;2023-11-22T08:31:44;7.53;;;6.83;;
8139;SDS011;4111;50.972;7.072;2023-11-22T08:34:11;7.20;;;6.30;;
8139;SDS011;4111;50.972;7.072;2023-11-22T08:36:37;12.13;;;7.07;;
8139;SDS011;4111;50.972;7.072;2023-11-22T08:39:04;6.67;;;6.07;;
8139;SDS011;4111;50.972;7.072;2023-11-22T08:41:32;10.73;;;6.50;;
8139;SDS011;4111;50.972;7.072;2023-11-22T08:43:59;9.70;;;6.33;;
8139;SDS011;4111;50.972;7.072;2023-11-22T08:46:26;6.97;;;6.30;;
8139;SDS011;4111;50.972;7.072;2023-11-22T08:48:53;7.50;;;6.30;;
8139;SDS011;4111;50.972;7.072;2023-11-22T08:51:19;12.03;;;5.87;;
8139;SDS011;4111;50.972;7.072;2023-11-22T08:53:46;6.83;;;6.13;;
8139;SDS011;4111;50.972;7.072;2023-11-22T08:56:12;6.53;;;5.87;;
8139;SDS011;4111;50.972;7.072;2023-11-22T08:58:39;8.53;;;5.90;;
8139;SDS011;4111;50.972;7.072;2023-11-22T09:01:06;8.40;;;5.47;;
8139;SDS011;4111;50.972;7.072;2023-11-22T09:03:36;5.60;;;5.00;;
8139;SDS011;4111;50.972;7.072;2023-11-22T09:06:04;5.83;;;5.23;;
8139;SDS011;4111;50.972;7.072;2023-11-22T09:08:33;6.63;;;5.47;;
8139;SDS011;4111;50.972;7.072;2023-11-22T09:11:02;6.77;;;4.87;;
8139;SDS011;4111;50.972;7.072;2023-11-22T09:13:32;5.37;;;4.87;;
8139;SDS011;4111;50.972;7.072;2023-11-22T09:15:59;5.83;;;5.23;;
8139;SDS011;4111;50.972;7.072;2023-11-22T09:18:25;5.27;;;4.73;;
8139;SDS011;4111;50.972;7.072;2023-11-22T09:20:53;5.30;;;4.90;;
8139;SDS011;4111;50.972;7.072;2023-11-22T09:23:20;5.17;;;4.67;;
8139;SDS011;4111;50.972;7.072;2023-11-22T09:25:49;13.40;;;4.30;;
8139;SDS011;4111;50.972;7.072;2023-11-22T09:28:17;4.03;;;3.70;;
8139;SDS011;4111;50.972;7.072;2023-11-22T09:30:46;4.40;;;4.00;;
8139;SDS011;4111;50.972;7.072;2023-11-22T09:33:14;4.53;;;3.93;;
8139;SDS011;4111;50.972;7.072;2023-11-22T09:35:42;3.50;;;3.20;;
8139;SDS011;4111;50.972;7.072;2023-11-22T09:38:11;3.40;;;3.10;;
8139;SDS011;4111;50.972;7.072;2023-11-22T09:43:13;3.37;;;3.07;;
8139;SDS011;4111;50.972;7.072;2023-11-22T09:45:49;4.23;;;3.07;;
8139;SDS011;4111;50.972;7.072;2023-11-22T09:48:22;3.40;;;3.00;;
8139;SDS011;4111;50.972;7.072;2023-11-22T09:51:01;3.47;;;2.97;;
8139;SDS011;4111;50.972;7.072;2023-11-22T09:53:35;4.70;;;2.83;;
8139;SDS011;4111;50.972;7.072;2023-11-22T09:56:03;3.53;;;2.80;;
8139;SDS011;4111;50.972;7.072;2023-11-22T09:58:30;3.53;;;3.23;;
8139;SDS011;4111;50.972;7.072;2023-11-22T10:01:00;3.67;;;3.30;;
8139;SDS011;4111;50.972;7.072;2023-11-22T10:03:27;3.33;;;3.03;;
8139;SDS011;4111;50.972;7.072;2023-11-22T10:05:57;4.77;;;3.40;;
8139;SDS011;4111;50.972;7.072;2023-11-22T10:08:27;3.20;;;2.87;;
8139;SDS011;4111;50.972;7.072;2023-11-22T10:10:56;3.27;;;2.70;;
8139;SDS011;4111;50.972;7.072;2023-11-22T10:13:22;4.33;;;2.93;;
8139;SDS011;4111;50.972;7.072;2023-11-22T10:15:49;2.80;;;2.60;;
8139;SDS011;4111;50.972;7.072;2023-11-22T10:18:17;3.87;;;2.87;;
8139;SDS011;4111;50.972;7.072;2023-11-22T10:20:47;3.97;;;3.13;;
8139;SDS011;4111;50.972;7.072;2023-11-22T10:23:17;5.50;;;3.23;;
8139;SDS011;4111;50.972;7.072;2023-11-22T10:25:48;4.33;;;2.70;;
8139;SDS011;4111;50.972;7.072;2023-11-22T10:28:18;3.27;;;2.97;;
8139;SDS011;4111;50.972;7.072;2023-11-22T10:30:46;2.83;;;2.50;;
8139;SDS011;4111;50.972;7.072;2023-11-22T10:33:14;2.60;;;2.40;;
8139;SDS011;4111;50.972;7.072;2023-11-22T10:35:42;3.90;;;2.67;;
8139;SDS011;4111;50.972;7.072;2023-11-22T10:38:15;2.40;;;2.20;;
8139;SDS011;4111;50.972;7.072;2023-11-22T10:40:43;2.90;;;2.00;;
8139;SDS011;4111;50.972;7.072;2023-11-22T10:43:14;3.17;;;1.97;;
8139;SDS011;4111;50.972;7.072;2023-11-22T10:45:42;2.00;;;1.90;;
8139;SDS011;4111;50.972;7.072;2023-11-22T10:48:15;3.00;;;2.00;;
8139;SDS011;4111;50.972;7.072;2023-11-22T10:50:46;3.53;;;2.40;;
8139;SDS011;4111;50.972;7.072;2023-11-22T10:53:19;2.87;;;2.27;;
8139;SDS011;4111;50.972;7.072;2023-11-22T10:55:53;2.83;;;2.47;;
8139;SDS011;4111;50.972;7.072;2023-11-22T10:58:25;3.20;;;2.07;;
8139;SDS011;4111;50.972;7.072;2023-11-22T11:00:54;3.90;;;2.03;;
8139;SDS011;4111;50.972;7.072;2023-11-22T11:03:22;2.77;;;2.53;;
8139;SDS011;4111;50.972;7.072;2023-11-22T11:06:01;3.43;;;2.47;;
8139;SDS011;4111;50.972;7.072;2023-11-22T11:08:30;2.73;;;2.33;;
8139;SDS011;4111;50.972;7.072;2023-11-22T11:10:58;2.97;;;1.70;;
8139;SDS011;4111;50.972;7.072;2023-11-22T11:13:25;4.13;;;2.00;;
8139;SDS011;4111;50.972;7.072;2023-11-22T11:15:53;2.50;;;2.30;;
8139;SDS011;4111;50.972;7.072;2023-11-22T11:18:20;2.03;;;1.93;;
8139;SDS011;4111;50.972;7.072;2023-11-22T11:20:57;3.77;;;2.17;;
8139;SDS011;4111;50.972;7.072;2023-11-22T11:23:26;1.83;;;1.60;;
8139;SDS011;4111;50.972;7.072;2023-11-22T11:25:55;1.63;;;1.40;;
8139;SDS011;4111;50.972;7.072;2023-11-22T11:28:23;1.53;;;1.43;;
8139;SDS011;4111;50.972;7.072;2023-11-22T11:30:54;1.20;;;1.10;;
8139;SDS011;4111;50.972;7.072;2023-11-22T11:33:27;1.47;;;1.37;;
8139;SDS011;4111;50.972;7.072;2023-11-22T11:36:01;1.70;;;1.60;;
8139;SDS011;4111;50.972;7.072;2023-11-22T11:38:31;1.50;;;1.40;;
8139;SDS011;4111;50.972;7.072;2023-11-22T11:41:10;1.47;;;1.37;;
8139;SDS011;4111;50.972;7.072;2023-11-22T11:46:07;1.00;;;1.00;;
8139;SDS011;4111;50.972;7.072;2023-11-22T11:48:35;0.97;;;0.97;;
8139;SDS011;4111;50.972;7.072;2023-11-22T11:51:01;1.67;;;1.10;;
8139;SDS011;4111;50.972;7.072;2023-11-22T11:53:28;1.40;;;1.30;;
8139;SDS011;4111;50.972;7.072;2023-11-22T11:55:57;2.00;;;1.33;;
8139;SDS011;4111;50.972;7.072;2023-11-22T11:58:24;1.60;;;1.50;;
8139;SDS011;4111;50.972;7.072;2023-11-22T12:00:51;1.07;;;1.03;;
8139;SDS011;4111;50.972;7.072;2023-11-22T12:03:18;1.27;;;1.20;;
8139;SDS011;4111;50.972;7.072;2023-11-22T12:05:48;3.50;;;1.43;;
8139;SDS011;4111;50.972;7.072;2023-11-22T12:08:17;1.50;;;1.40;;
8139;SDS011;4111;50.972;7.072;2023-11-22T12:10:45;1.60;;;1.47;;
8139;SDS011;4111;50.972;7.072;2023-11-22T12:13:18;2.13;;;1.40;;
8139;SDS011;4111;50.972;7.072;2023-11-22T12:15:47;1.93;;;1.63;;
8139;SDS011;4111;50.972;7.072;2023-11-22T12:18:14;1.40;;;1.30;;
8139;SDS011;4111;50.972;7.072;2023-11-22T12:20:40;1.60;;;1.50;;
8139;SDS011;4111;50.972;7.072;2023-11-22T12:23:07;1.60;;;1.50;;
8139;SDS011;4111;50.972;7.072;2023-11-22T12:25:34;1.43;;;1.33;;
8139;SDS011;4111;50.972;7.072;2023-11-22T12:28:01;1.87;;;1.23;;
8139;SDS011;4111;50.972;7.072;2023-11-22T12:30:29;1.80;;;1.40;;
8139;SDS011;4111;50.972;7.072;2023-11-22T12:33:03;1.27;;;1.23;;
8139;SDS011;4111;50.972;7.072;2023-11-22T12:35:31;1.33;;;1.23;;
8139;SDS011;4111;50.972;7.072;2023-11-22T12:38:04;1.70;;;1.50;;
8139;SDS011;4111;50.972;7.072;2023-11-22T12:40:34;2.07;;;1.87;;
8139;SDS011;4111;50.972;7.072;2023-11-22T12:43:02;1.63;;;1.53;;
8139;SDS011;4111;50.972;7.072;2023-11-22T12:45:30;1.70;;;1.60;;
8139;SDS011;4111;50.972;7.072;2023-11-22T12:47:58;1.40;;;1.30;;
8139;SDS011;4111;50.972;7.072;2023-11-22T12:50:29;1.40;;;1.30;;
8139;SDS011;4111;50.972;7.072;2023-11-22T12:53:35;1.47;;;1.37;;
8139;SDS011;4111;50.972;7.072;2023-11-22T12:55:55;1.30;;;1.20;;
8139;SDS011;4111;50.972;7.072;2023-11-22T12:58:22;1.47;;;1.37;;
8139;SDS011;4111;50.972;7.072;2023-11-22T13:00:51;1.50;;;1.40;;
8139;SDS011;4111;50.972;7.072;2023-11-22T13:03:24;1.87;;;1.43;;
8139;SDS011;4111;50.972;7.072;2023-11-22T13:05:52;1.70;;;1.60;;
8139;SDS011;4111;50.972;7.072;2023-11-22T13:08:18;3.33;;;1.90;;
8139;SDS011;4111;50.972;7.072;2023-11-22T13:10:46;1.80;;;1.20;;
8139;SDS011;4111;50.972;7.072;2023-11-22T13:13:15;1.90;;;1.23;;
8139;SDS011;4111;50.972;7.072;2023-11-22T13:15:41;1.30;;;1.20;;
8139;SDS011;4111;50.972;7.072;2023-11-22T13:18:08;1.30;;;1.20;;
8139;SDS011;4111;50.972;7.072;2023-11-22T13:20:35;1.40;;;1.30;;
8139;SDS011;4111;50.972;7.072;2023-11-22T13:23:01;1.30;;;1.30;;
8139;SDS011;4111;50.972;7.072;2023-11-22T13:25:29;1.27;;;1.17;;
8139;SDS011;4111;50.972;7.072;2023-11-22T13:27:55;3.93;;;1.57;;
8139;SDS011;4111;50.972;7.072;2023-11-22T13:30:22;1.40;;;1.30;;
8139;SDS011;4111;50.972;7.072;2023-11-22T13:32:56;1.83;;;1.50;;
8139;SDS011;4111;50.972;7.072;2023-11-22T13:35:24;1.60;;;1.50;;
8139;SDS011;4111;50.972;7.072;2023-11-22T13:37:53;2.33;;;2.03;;
8139;SDS011;4111;50.972;7.072;2023-11-22T13:40:20;2.63;;;2.40;;
8139;SDS011;4111;50.972;7.072;2023-11-22T13:42:51;2.53;;;2.07;;
8139;SDS011;4111;50.972;7.072;2023-11-22T13:45:21;2.20;;;2.00;;
8139;SDS011;4111;50.972;7.072;2023-11-22T13:47:48;4.47;;;1.90;;
8139;SDS011;4111;50.972;7.072;2023-11-22T13:50:17;2.00;;;1.80;;
8139;SDS011;4111;50.972;7.072;2023-11-22T13:52:53;2.00;;;1.90;;
8139;SDS011;4111;50.972;7.072;2023-11-22T13:55:21;2.07;;;1.97;;
8139;SDS011;4111;50.972;7.072;2023-11-22T13:57:52;2.07;;;1.97;;
8139;SDS011;4111;50.972;7.072;2023-11-22T14:00:19;2.03;;;1.93;;
8139;SDS011;4111;50.972;7.072;2023-11-22T14:02:49;2.00;;;1.90;;
8139;SDS011;4111;50.972;7.072;2023-11-22T14:05:22;3.37;;;2.17;;
8139;SDS011;4111;50.972;7.072;2023-11-22T14:07:49;2.87;;;2.40;;
8139;SDS011;4111;50.972;7.072;2023-11-22T14:10:17;4.03;;;2.30;;
8139;SDS011;4111;50.972;7.072;2023-11-22T14:12:45;2.50;;;2.30;;
8139;SDS011;4111;50.972;7.072;2023-11-22T14:15:12;2.13;;;2.03;;
8139;SDS011;4111;50.972;7.072;2023-11-22T14:17:39;5.23;;;2.63;;
8139;SDS011;4111;50.972;7.072;2023-11-22T14:22:37;3.00;;;2.80;;
8139;SDS011;4111;50.972;7.072;2023-11-22T14:25:05;2.83;;;2.63;;
8139;SDS011;4111;50.972;7.072;2023-11-22T14:27:40;3.57;;;2.70;;
8139;SDS011;4111;50.972;7.072;2023-11-22T14:30:11;3.07;;;2.77;;
8139;SDS011;4111;50.972;7.072;2023-11-22T14:32:43;4.50;;;2.60;;
8139;SDS011;4111;50.972;7.072;2023-11-22T14:35:10;5.27;;;3.20;;
8139;SDS011;4111;50.972;7.072;2023-11-22T14:37:40;2.87;;;2.67;;
8139;SDS011;4111;50.972;7.072;2023-11-22T14:40:07;3.43;;;3.10;;
8139;SDS011;4111;50.972;7.072;2023-11-22T14:42:41;4.23;;;3.30;;
8139;SDS011;4111;50.972;7.072;2023-11-22T14:45:08;6.27;;;3.17;;
8139;SDS011;4111;50.972;7.072;2023-11-22T14:47:35;4.70;;;3.00;;
8139;SDS011;4111;50.972;7.072;2023-11-22T14:50:02;4.10;;;3.70;;
8139;SDS011;4111;50.972;7.072;2023-11-22T14:52:33;8.60;;;3.57;;
8139;SDS011;4111;50.972;7.072;2023-11-22T14:54:59;3.87;;;3.57;;
8139;SDS011;4111;50.972;7.072;2023-11-22T14:57:26;3.53;;;3.20;;
8139;SDS011;4111;50.972;7.072;2023-11-22T14:59:53;5.20;;;3.00;;
8139;SDS011;4111;50.972;7.072;2023-11-22T15:02:20;5.27;;;3.40;;
8139;SDS011;4111;50.972;7.072;2023-11-22T15:04:47;3.17;;;2.97;;
8139;SDS011;4111;50.972;7.072;2023-11-22T15:07:13;4.43;;;3.27;;
8139;SDS011;4111;50.972;7.072;2023-11-22T15:09:41;7.10;;;3.37;;
8139;SDS011;4111;50.972;7.072;2023-11-22T15:12:08;5.63;;;3.67;;
8139;SDS011;4111;50.972;7.072;2023-11-22T15:14:35;4.63;;;3.20;;
8139;SDS011;4111;50.972;7.072;2023-11-22T15:17:02;3.13;;;2.83;;
8139;SDS011;4111;50.972;7.072;2023-11-22T15:19:31;3.47;;;3.13;;
8139;SDS011;4111;50.972;7.072;2023-11-22T15:21:58;5.33;;;3.00;;
8139;SDS011;4111;50.972;7.072;2023-11-22T15:24:27;6.03;;;3.43;;
8139;SDS011;4111;50.972;7.072;2023-11-22T15:26:53;4.73;;;2.97;;